Time;durP1;ratioP1;P1;durP2;ratioP2;P2;SDS_P1;SDS_P2;PMS_P1;PMS_P2;Temp;Humidity;BMP_temperature;BMP_pressure;BME280_temperature;BME280_humidity;BME280_pressure;Samples;Min_cycle;Max_cycle;Signal;HPM_P1;HPM_P2
2021/09/04 00:02:21;;;;;;;11.32;2.50;;;;;;;10.40;100.00;100948.38;5071536;28;20051;-81
2021/09/04 00:04:47;;;;;;;10.52;2.70;;;;;;;10.38;100.00;100943.25;5072308;28;20025;-81
2021/09/04 00:07:12;;;;;;;12.63;3.28;;;;;;;10.31;100.00;100952.81;5071351;28;20084;-82
2021/09/04 00:09:37;;;;;;;14.40;2.53;;;;;;;10.28;100.00;100951.97;5072080;28;20036;-81
2021/09/04 00:12:04;;;;;;;11.07;2.65;;;;;;;10.33;100.00;100948.47;5071794;28;20028;-82
2021/09/04 00:14:30;;;;;;;10.75;2.80;;;;;;;10.23;100.00;100949.41;5071730;28;20021;-81
2021/09/04 00:16:55;;;;;;;10.77;2.30;;;;;;;10.27;100.00;100947.66;5072036;28;20044;-81
2021/09/04 00:19:20;;;;;;;11.45;2.72;;;;;;;10.24;100.00;100953.72;5072323;28;20021;-81
2021/09/04 00:21:46;;;;;;;9.13;2.42;;;;;;;10.19;100.00;100954.63;5071862;28;20052;-82
2021/09/04 00:24:11;;;;;;;9.70;2.55;;;;;;;10.18;100.00;100953.78;5069974;28;20067;-82
2021/09/04 00:26:36;;;;;;;11.13;2.35;;;;;;;10.25;100.00;100952.84;5071152;28;20079;-81
2021/09/04 00:29:02;;;;;;;8.52;2.33;;;;;;;10.32;100.00;100944.16;5070624;28;20025;-83
2021/09/04 00:31:27;;;;;;;11.40;2.58;;;;;;;10.35;100.00;100951.06;5070420;28;20025;-82
2021/09/04 00:33:53;;;;;;;8.85;2.38;;;;;;;10.30;100.00;100934.69;5071662;28;20040;-82
2021/09/04 00:36:18;;;;;;;10.40;1.92;;;;;;;10.32;100.00;100936.38;5071237;28;20114;-82
2021/09/04 00:38:43;;;;;;;10.45;2.90;;;;;;;10.36;100.00;100932.00;5070459;28;20008;-82
2021/09/04 00:41:08;;;;;;;13.63;2.33;;;;;;;10.44;100.00;100929.34;5071238;28;20056;-82
2021/09/04 00:43:34;;;;;;;11.73;2.33;;;;;;;10.47;100.00;100940.53;5071408;28;20021;-82
2021/09/04 00:46:07;;;;;;;8.95;1.98;;;;;;;10.53;100.00;100935.28;5070303;28;20028;-82
2021/09/04 00:48:32;;;;;;;8.32;2.00;;;;;;;10.62;100.00;100941.22;5070942;28;20020;-82
2021/09/04 00:50:57;;;;;;;9.02;2.20;;;;;;;10.65;100.00;100943.78;5071247;28;20024;-82
2021/09/04 00:53:23;;;;;;;6.43;2.03;;;;;;;10.69;100.00;100941.13;5071459;28;20021;-82
2021/09/04 00:55:48;;;;;;;9.20;2.08;;;;;;;10.81;100.00;100950.50;5071679;28;20025;-82
2021/09/04 00:58:13;;;;;;;10.55;2.53;;;;;;;10.84;100.00;100945.28;5071636;28;20035;-82
2021/09/04 01:00:40;;;;;;;10.35;2.63;;;;;;;10.93;100.00;100939.97;5070629;28;20024;-82
2021/09/04 01:03:06;;;;;;;12.15;2.08;;;;;;;10.96;100.00;100949.41;5070369;28;20036;-82
2021/09/04 01:05:31;;;;;;;8.25;1.83;;;;;;;11.00;100.00;100944.19;5070267;28;20021;-82
2021/09/04 01:07:56;;;;;;;11.85;2.38;;;;;;;11.09;100.00;100942.34;5069996;28;20029;-82
2021/09/04 01:10:22;;;;;;;8.80;2.17;;;;;;;11.14;100.00;100943.13;5070973;28;20052;-82
2021/09/04 01:12:47;;;;;;;10.98;2.35;;;;;;;11.14;100.00;100936.19;5071228;28;20056;-82
2021/09/04 01:15:12;;;;;;;10.98;2.13;;;;;;;11.22;100.00;100933.50;5071153;28;20021;-82
2021/09/04 01:17:38;;;;;;;7.25;2.08;;;;;;;11.21;100.00;100939.56;5069801;28;20036;-82
2021/09/04 01:20:05;;;;;;;8.77;2.03;;;;;;;11.26;100.00;100938.59;5074584;28;20485;-82
2021/09/04 01:22:32;;;;;;;7.88;2.00;;;;;;;11.32;100.00;100932.47;5073965;28;20020;-82
2021/09/04 01:25:01;;;;;;;10.15;2.28;;;;;;;11.35;100.00;100931.56;5073801;28;20055;-82
2021/09/04 01:27:27;;;;;;;16.02;2.50;;;;;;;11.36;100.00;100934.16;5074921;28;20028;-82
2021/09/04 01:29:52;;;;;;;8.07;2.05;;;;;;;11.39;100.00;100938.41;5074670;28;20088;-82
2021/09/04 01:32:17;;;;;;;9.10;1.83;;;;;;;11.42;100.00;100939.25;5074174;28;20057;-82
2021/09/04 01:34:42;;;;;;;7.57;2.00;;;;;;;11.42;100.00;100938.38;5073506;28;20039;-82
2021/09/04 01:37:08;;;;;;;12.95;2.40;;;;;;;11.46;100.00;100925.31;5073144;28;20024;-82
2021/09/04 01:39:33;;;;;;;8.70;2.03;;;;;;;11.50;100.00;100932.19;5074880;28;20457;-82
2021/09/04 01:41:59;;;;;;;10.57;2.00;;;;;;;11.50;100.00;100921.78;5074995;28;20035;-82
2021/09/04 01:44:24;;;;;;;7.75;1.98;;;;;;;11.47;100.00;100928.78;5073257;28;20029;-82
2021/09/04 01:46:49;;;;;;;8.55;2.00;;;;;;;11.40;100.00;100927.16;5074032;28;20021;-82
2021/09/04 01:49:14;;;;;;;7.40;2.08;;;;;;;11.46;100.00;100927.06;5073374;28;20071;-82
2021/09/04 01:51:40;;;;;;;10.02;2.53;;;;;;;11.45;100.00;100928.81;5074429;28;20056;-82
2021/09/04 01:54:05;;;;;;;8.38;2.00;;;;;;;11.45;100.00;100922.72;5073216;28;20029;-82
2021/09/04 01:56:30;;;;;;;8.02;1.75;;;;;;;11.53;100.00;100920.88;5073647;28;20037;-82
2021/09/04 01:58:55;;;;;;;7.07;2.40;;;;;;;11.53;100.00;100921.72;5074909;28;20025;-82
2021/09/04 02:01:21;;;;;;;12.13;2.40;;;;;;;11.58;100.00;100921.69;5072686;28;20025;-82
2021/09/04 02:03:46;;;;;;;7.85;2.30;;;;;;;11.57;100.00;100912.16;5073213;28;20013;-82
2021/09/04 02:06:11;;;;;;;7.30;2.10;;;;;;;11.61;100.00;100908.63;5070671;28;20021;-82
2021/09/04 02:08:36;;;;;;;11.25;2.03;;;;;;;11.61;100.00;100913.84;5065726;28;20032;-82
2021/09/04 02:11:02;;;;;;;11.90;2.30;;;;;;;11.62;100.00;100907.75;5066827;28;20036;-82
2021/09/04 02:13:28;;;;;;;5.53;2.05;;;;;;;11.68;100.00;100906.78;5065855;28;20039;-82
2021/09/04 02:15:53;;;;;;;8.40;2.78;;;;;;;11.65;100.00;100901.63;5063266;28;20099;-82
2021/09/04 02:18:20;;;;;;;10.07;2.35;;;;;;;11.64;100.00;100897.34;5057705;28;20035;-82
2021/09/04 02:20:45;;;;;;;8.02;2.13;;;;;;;11.66;100.00;100896.41;5060428;28;20079;-82
2021/09/04 02:23:11;;;;;;;7.38;2.30;;;;;;;11.75;100.00;100896.25;5061626;28;20021;-82
2021/09/04 02:25:36;;;;;;;7.00;2.28;;;;;;;11.74;100.00;100904.94;5062290;28;20025;-82
2021/09/04 02:28:03;;;;;;;11.68;2.47;;;;;;;11.74;100.00;100896.28;5062883;28;20021;-82
2021/09/04 02:30:28;;;;;;;9.55;2.38;;;;;;;11.79;100.00;100896.19;5063115;28;20029;-82
2021/09/04 02:32:53;;;;;;;9.65;2.42;;;;;;;11.66;100.00;100899.00;5064964;28;20044;-82
2021/09/04 02:35:19;;;;;;;5.30;2.28;;;;;;;11.69;100.00;100904.16;5068277;28;20029;-81
2021/09/04 02:37:44;;;;;;;10.90;3.13;;;;;;;11.66;100.00;100901.59;5069299;28;20028;-81
2021/09/04 02:40:10;;;;;;;8.35;2.55;;;;;;;11.71;100.00;100902.38;5068622;28;20025;-82
2021/09/04 02:42:35;;;;;;;13.75;2.72;;;;;;;11.81;100.00;100899.63;5071041;28;20044;-82
2021/09/04 02:45:00;;;;;;;11.82;2.90;;;;;;;11.79;100.00;100891.00;5071951;28;20037;-82
2021/09/04 02:47:26;;;;;;;8.75;2.10;;;;;;;11.80;100.00;100895.31;5073201;28;20024;-82
2021/09/04 02:49:51;;;;;;;9.85;2.60;;;;;;;11.74;100.00;100899.72;5073672;28;20016;-82
2021/09/04 02:52:16;;;;;;;8.55;2.70;;;;;;;11.74;100.00;100894.53;5072637;28;20040;-81
2021/09/04 02:54:42;;;;;;;7.18;2.60;;;;;;;11.78;100.00;100891.88;5072513;28;20029;-81
2021/09/04 02:57:08;;;;;;;10.40;2.65;;;;;;;11.82;100.00;100896.97;5071432;28;20025;-82
2021/09/04 02:59:33;;;;;;;7.90;2.90;;;;;;;11.74;100.00;100904.94;5072733;28;20044;-82
2021/09/04 03:01:58;;;;;;;9.30;2.42;;;;;;;11.81;100.00;100903.06;5071728;28;20033;-82
2021/09/04 03:04:23;;;;;;;7.80;2.65;;;;;;;11.84;100.00;100899.56;5072748;28;20033;-82
2021/09/04 03:06:49;;;;;;;8.90;3.00;;;;;;;11.83;100.00;100903.06;5071908;28;20020;-82
2021/09/04 03:09:14;;;;;;;9.60;2.60;;;;;;;11.87;100.00;100899.53;5072164;28;20025;-82
2021/09/04 03:11:39;;;;;;;8.07;2.60;;;;;;;11.84;100.00;100891.78;5072371;28;20093;-82
2021/09/04 03:14:04;;;;;;;10.30;2.70;;;;;;;11.78;100.00;100902.28;5072058;28;20037;-82
2021/09/04 03:16:30;;;;;;;8.40;2.40;;;;;;;11.79;100.00;100903.97;5070450;28;20031;-82
2021/09/04 03:18:55;;;;;;;10.27;3.15;;;;;;;11.84;100.00;100907.38;5072258;28;20464;-82
2021/09/04 03:21:20;;;;;;;9.00;2.95;;;;;;;11.89;100.00;100908.19;5071179;28;20017;-82
2021/09/04 03:23:46;;;;;;;8.73;2.90;;;;;;;11.83;100.00;100903.06;5070774;28;20084;-82
2021/09/04 03:26:11;;;;;;;7.72;3.00;;;;;;;11.74;100.00;100899.72;5072095;28;20029;-82
2021/09/04 03:28:36;;;;;;;8.88;3.05;;;;;;;11.87;100.00;100904.75;5072351;28;20017;-82
2021/09/04 03:31:01;;;;;;;9.07;2.72;;;;;;;11.92;100.00;100906.38;5071907;28;20033;-82
2021/09/04 03:33:27;;;;;;;8.63;2.78;;;;;;;11.90;100.00;100904.69;5072826;28;20036;-82
2021/09/04 03:35:52;;;;;;;7.15;2.92;;;;;;;11.95;100.00;100903.72;5070887;28;20434;-82
2021/09/04 03:38:17;;;;;;;9.88;2.70;;;;;;;12.02;100.00;100903.63;5071754;28;20029;-82
2021/09/04 03:40:43;;;;;;;7.63;2.95;;;;;;;11.98;100.00;100903.66;5071784;28;20047;-82
2021/09/04 03:43:08;;;;;;;10.05;3.08;;;;;;;11.92;100.00;100910.72;5070127;28;20045;-82
2021/09/04 03:45:35;;;;;;;8.30;2.45;;;;;;;12.02;100.00;100906.22;5071768;28;20105;-82
2021/09/04 03:48:00;;;;;;;8.48;2.50;;;;;;;12.02;100.00;100903.63;5071932;28;20401;-82
2021/09/04 03:50:25;;;;;;;9.48;3.05;;;;;;;12.06;100.00;100902.66;5069932;28;20051;-82
2021/09/04 03:52:50;;;;;;;9.77;2.72;;;;;;;11.95;100.00;100901.13;5071154;28;20045;-82
2021/09/04 03:55:16;;;;;;;8.13;1.98;;;;;;;12.04;100.00;100907.91;5071417;28;20048;-82
2021/09/04 03:57:41;;;;;;;10.60;2.85;;;;;;;12.05;100.00;100903.56;5070596;28;20025;-82
2021/09/04 04:00:07;;;;;;;10.68;2.33;;;;;;;12.06;100.00;100900.06;5071811;28;20044;-82
2021/09/04 04:02:32;;;;;;;10.65;2.97;;;;;;;12.05;100.00;100899.22;5072251;28;20088;-82
2021/09/04 04:04:57;;;;;;;6.93;2.22;;;;;;;12.00;100.00;100901.03;5070758;28;20037;-82
2021/09/04 04:07:23;;;;;;;7.18;2.38;;;;;;;11.97;100.00;100895.88;5071811;28;20079;-82
2021/09/04 04:09:48;;;;;;;6.72;2.50;;;;;;;12.00;100.00;100898.44;5070058;28;20032;-82
2021/09/04 04:12:13;;;;;;;7.28;2.10;;;;;;;11.88;100.00;100886.50;5071635;28;20047;-81
2021/09/04 04:14:39;;;;;;;8.23;2.22;;;;;;;11.80;100.00;100885.78;5071970;28;20005;-81
2021/09/04 04:17:04;;;;;;;9.43;2.40;;;;;;;11.90;100.00;100891.69;5069997;28;20004;-82
2021/09/04 04:19:29;;;;;;;18.27;3.47;;;;;;;11.90;100.00;100889.09;5070332;28;20029;-82
2021/09/04 04:21:55;;;;;;;9.93;2.00;;;;;;;11.97;100.00;100886.34;5070041;28;20063;-82
2021/09/04 04:24:20;;;;;;;9.25;2.03;;;;;;;11.94;100.00;100896.78;5072136;28;20017;-81
2021/09/04 04:26:45;;;;;;;13.13;2.42;;;;;;;11.93;100.00;100895.09;5072439;28;20029;-81
2021/09/04 04:29:11;;;;;;;9.30;2.08;;;;;;;11.96;100.00;100896.78;5070269;28;20062;-81
2021/09/04 04:31:38;;;;;;;5.47;1.80;;;;;;;12.01;100.00;100902.75;5094596;22;20503;-85
2021/09/04 04:34:04;;;;;;;6.65;1.92;;;;;;;12.04;100.00;100900.09;5071856;28;20027;-85
2021/09/04 04:36:29;;;;;;;7.45;2.05;;;;;;;12.09;100.00;100905.19;5073009;28;20028;-85
2021/09/04 04:38:55;;;;;;;8.70;2.50;;;;;;;12.05;100.00;100906.16;5071903;28;20029;-85
2021/09/04 04:41:20;;;;;;;9.15;2.15;;;;;;;12.03;100.00;100900.97;5071932;28;20062;-85
2021/09/04 04:43:45;;;;;;;8.02;1.95;;;;;;;12.01;100.00;100897.56;5071883;28;20056;-85
2021/09/04 04:46:10;;;;;;;10.35;2.70;;;;;;;12.02;100.00;100904.47;5073214;28;20465;-86
2021/09/04 04:48:36;;;;;;;9.27;2.10;;;;;;;12.02;100.00;100901.00;5071736;28;20032;-86
2021/09/04 04:51:02;;;;;;;8.55;2.15;;;;;;;11.96;100.00;100897.63;5071704;28;20020;-86
2021/09/04 04:53:27;;;;;;;7.22;2.10;;;;;;;12.02;100.00;100891.47;5072051;28;20038;-86
2021/09/04 04:55:52;;;;;;;6.72;1.70;;;;;;;12.07;100.00;100894.84;5075673;28;20447;-85
2021/09/04 04:58:17;;;;;;;8.32;2.20;;;;;;;12.06;100.00;100900.91;5077135;28;20021;-86
2021/09/04 05:00:43;;;;;;;7.53;2.22;;;;;;;12.06;100.00;100894.88;5077257;28;20055;-85
2021/09/04 05:03:08;;;;;;;8.50;1.98;;;;;;;12.05;100.00;100906.16;5077108;28;20031;-86
2021/09/04 05:05:34;;;;;;;7.13;2.10;;;;;;;12.12;100.00;100898.19;5075455;28;20048;-86
2021/09/04 05:07:59;;;;;;;9.50;2.08;;;;;;;12.17;100.00;100901.56;5075524;28;20035;-86
2021/09/04 05:10:25;;;;;;;7.45;2.22;;;;;;;12.19;100.00;100901.53;5076553;28;20469;-86
2021/09/04 05:12:50;;;;;;;10.32;2.22;;;;;;;12.26;100.00;100903.16;5076392;28;20099;-85
2021/09/04 05:15:15;;;;;;;7.18;2.10;;;;;;;12.34;100.00;100902.97;5076558;28;20024;-85
2021/09/04 05:17:40;;;;;;;6.97;2.50;;;;;;;12.34;100.00;100901.22;5075189;28;20369;-86
2021/09/04 05:20:06;;;;;;;14.60;2.03;;;;;;;12.35;100.00;100897.75;5076378;28;20032;-85
2021/09/04 05:22:32;;;;;;;12.82;2.75;;;;;;;12.39;100.00;100901.16;5074985;28;20024;-86
2021/09/04 05:24:58;;;;;;;6.57;2.00;;;;;;;12.45;100.00;100895.81;5076278;28;20020;-86
2021/09/04 05:27:23;;;;;;;8.90;2.70;;;;;;;12.50;100.00;100896.59;5074997;28;20031;-86
2021/09/04 05:29:48;;;;;;;9.13;1.95;;;;;;;12.52;100.00;100899.16;5076342;28;20047;-86
2021/09/04 05:32:13;;;;;;;8.07;2.20;;;;;;;12.49;100.00;100901.81;5074717;28;20522;-86
2021/09/04 05:34:39;;;;;;;8.23;2.30;;;;;;;12.55;100.00;100902.53;5074979;28;20029;-86
2021/09/04 05:37:04;;;;;;;7.57;1.98;;;;;;;12.51;100.00;100903.50;5076195;28;20056;-86
2021/09/04 05:39:29;;;;;;;9.55;2.08;;;;;;;12.64;100.00;100891.09;5074943;28;20028;-86
2021/09/04 05:41:54;;;;;;;8.20;2.38;;;;;;;12.64;100.00;100893.69;5074659;28;20017;-86
2021/09/04 05:44:20;;;;;;;9.48;2.30;;;;;;;12.75;100.00;100883.06;5074850;28;20027;-86
2021/09/04 05:46:45;;;;;;;8.05;1.98;;;;;;;12.66;100.00;100892.78;5074713;28;20047;-86
2021/09/04 05:49:10;;;;;;;10.73;2.05;;;;;;;12.85;100.00;100889.78;5074670;28;20119;-86
2021/09/04 05:51:35;;;;;;;6.47;2.08;;;;;;;12.86;100.00;100891.47;5074631;28;20028;-86
2021/09/04 05:54:01;;;;;;;7.07;2.25;;;;;;;12.90;100.00;100891.38;5075719;28;20024;-86
2021/09/04 05:56:26;;;;;;;8.35;2.35;;;;;;;12.99;100.00;100892.94;5074537;28;20035;-86
2021/09/04 05:58:51;;;;;;;10.38;2.47;;;;;;;13.06;100.00;100894.50;5074583;28;20027;-86
2021/09/04 06:01:17;;;;;;;5.63;2.08;;;;;;;13.08;100.00;100895.31;5074724;28;20115;-86
2021/09/04 06:03:42;;;;;;;13.43;2.45;;;;;;;13.11;100.00;100890.00;5075879;28;20460;-86
2021/09/04 06:06:07;;;;;;;7.57;2.05;;;;;;;13.13;100.00;100893.44;5075183;28;20491;-85
2021/09/04 06:08:33;;;;;;;10.65;2.55;;;;;;;13.22;100.00;100894.13;5076407;28;20499;-86
2021/09/04 06:10:58;;;;;;;6.65;2.05;;;;;;;13.26;100.00;100901.00;5074873;28;20040;-85
2021/09/04 06:13:23;;;;;;;9.65;2.42;;;;;;;13.28;100.00;100905.28;5074819;28;20476;-86
2021/09/04 06:15:49;;;;;;;6.38;2.00;;;;;;;13.34;100.00;100902.53;5074740;28;20028;-85
2021/09/04 06:18:14;;;;;;;12.02;2.90;;;;;;;13.32;100.00;100901.72;5075030;28;20016;-86
2021/09/04 06:20:40;;;;;;;7.57;1.98;;;;;;;13.45;100.00;100907.47;5074819;28;20028;-85
2021/09/04 06:23:06;;;;;;;9.80;2.20;;;;;;;13.45;100.00;100907.47;5074880;28;20021;-86
2021/09/04 06:25:34;;;;;;;9.07;1.98;;;;;;;13.47;100.00;100905.69;5074540;28;20032;-85
2021/09/04 06:27:59;;;;;;;6.57;2.33;;;;;;;13.61;100.00;100907.09;5074817;28;20028;-86
2021/09/04 06:30:24;;;;;;;9.52;2.45;;;;;;;13.62;100.00;100901.00;5074206;28;20024;-85
2021/09/04 06:32:50;;;;;;;6.70;2.40;;;;;;;13.65;100.00;100906.16;5074392;28;20035;-86
2021/09/04 06:35:15;;;;;;;9.18;2.00;;;;;;;13.67;100.00;100900.00;5074179;28;20055;-86
2021/09/04 06:37:40;;;;;;;9.98;2.45;;;;;;;13.74;100.00;100908.53;5075891;28;20070;-85
2021/09/04 06:40:06;;;;;;;9.23;2.65;;;;;;;13.73;100.00;100909.41;5074317;28;20035;-86
2021/09/04 06:42:32;;;;;;;6.47;2.33;;;;;;;13.84;100.00;100906.53;5075225;28;20388;-85
2021/09/04 06:44:57;;;;;;;6.53;2.03;;;;;;;13.89;100.00;100909.88;5074167;28;20027;-85
2021/09/04 06:47:22;;;;;;;8.77;2.08;;;;;;;13.90;100.00;100916.78;5074083;28;20036;-86
2021/09/04 06:49:48;;;;;;;9.30;2.35;;;;;;;13.98;100.00;100918.31;5075036;28;20035;-85
2021/09/04 06:52:13;;;;;;;8.60;2.58;;;;;;;13.96;100.00;100917.47;5073676;28;20038;-86
2021/09/04 06:54:38;;;;;;;9.60;2.78;;;;;;;14.16;100.00;100910.88;5073940;28;20502;-86
2021/09/04 06:57:04;;;;;;;7.45;2.65;;;;;;;14.23;100.00;100915.03;5074047;28;20025;-86
2021/09/04 06:59:30;;;;;;;10.25;3.28;;;;;;;14.42;100.00;100907.53;5073864;28;20051;-86
2021/09/04 07:01:56;;;;;;;7.82;2.75;;;;;;;14.28;100.00;100910.53;5075368;28;20052;-85
2021/09/04 07:04:21;;;;;;;8.95;2.70;;;;;;;14.33;100.00;100908.66;5074006;28;20016;-88
2021/09/04 07:06:46;;;;;;;6.30;2.60;;;;;;;14.49;100.00;100904.69;5075420;28;20024;-86
2021/09/04 07:09:11;;;;;;;6.40;2.47;;;;;;;14.70;100.00;100902.41;5073832;28;20070;-86
2021/09/04 07:11:37;;;;;;;10.35;3.30;;;;;;;14.51;100.00;100899.47;5074982;28;20028;-86
2021/09/04 07:14:02;;;;;;;9.82;3.58;;;;;;;14.50;100.00;100896.00;5074948;28;20038;-86
2021/09/04 07:16:27;;;;;;;11.25;4.15;;;;;;;14.42;100.00;100900.56;5075210;28;20046;-88
2021/09/04 07:18:53;;;;;;;9.80;4.10;;;;;;;14.64;100.00;100905.19;5073703;28;20031;-86
2021/09/04 07:21:18;;;;;;;13.50;5.28;;;;;;;14.43;100.00;100907.50;5074144;28;20035;-87
2021/09/04 07:23:43;;;;;;;14.50;5.20;;;;;;;14.54;100.00;100906.38;5074185;28;20107;-89
2021/09/04 07:26:08;;;;;;;13.52;5.15;;;;;;;14.62;100.00;100912.22;5074836;28;20123;-87
2021/09/04 07:28:34;;;;;;;13.23;5.10;;;;;;;14.61;100.00;100920.94;5074467;28;20077;-86
2021/09/04 07:31:00;;;;;;;13.20;5.35;;;;;;;14.60;100.00;100914.03;5073721;28;20043;-87
2021/09/04 07:33:26;;;;;;;11.77;5.68;;;;;;;14.71;100.00;100922.38;5075814;28;20126;-85
2021/09/04 07:35:52;;;;;;;11.05;5.38;;;;;;;14.64;100.00;100916.50;5074204;28;20070;-87
2021/09/04 07:38:17;;;;;;;13.75;6.18;;;;;;;14.75;100.00;100918.81;5075757;28;20028;-86
2021/09/04 07:40:44;;;;;;;10.43;5.32;;;;;;;15.17;100.00;100915.75;5074208;28;20443;-86
2021/09/04 07:43:09;;;;;;;14.25;5.75;;;;;;;15.18;100.00;100915.72;5074212;28;20381;-86
2021/09/04 07:45:35;;;;;;;15.05;6.40;;;;;;;15.13;100.00;100911.53;5073858;28;20034;-87
2021/09/04 07:48:01;;;;;;;14.73;6.18;;;;;;;15.27;100.00;100913.69;5073458;28;20024;-87
2021/09/04 07:50:26;;;;;;;15.40;5.88;;;;;;;15.32;100.00;100914.41;5073729;28;20069;-87
2021/09/04 07:52:51;;;;;;;13.32;6.07;;;;;;;15.40;100.00;100920.25;5074548;28;20035;-86
2021/09/04 07:55:17;;;;;;;15.02;6.50;;;;;;;15.04;100.00;100922.28;5073838;28;20028;-87
2021/09/04 07:57:42;;;;;;;12.02;6.00;;;;;;;15.20;100.00;100921.75;5074626;28;20024;-87
2021/09/04 08:00:08;;;;;;;14.40;6.15;;;;;;;15.32;100.00;100924.88;5072323;28;20478;-87
2021/09/04 08:02:33;;;;;;;19.38;6.45;;;;;;;15.19;100.00;100922.66;5072079;28;20020;-88
2021/09/04 08:04:59;;;;;;;11.70;5.72;;;;;;;15.39;100.00;100929.88;5072212;28;20092;-88
2021/09/04 08:07:24;;;;;;;16.55;5.88;;;;;;;15.46;100.00;100921.84;5072209;28;20041;-88
2021/09/04 08:09:49;;;;;;;18.33;6.18;;;;;;;16.10;100.00;100933.63;5072241;28;20109;-88
2021/09/04 08:12:14;;;;;;;12.90;5.85;;;;;;;16.26;100.00;100930.44;5073443;28;20039;-88
2021/09/04 08:14:40;;;;;;;12.45;5.47;;;;;;;16.60;98.93;100924.84;5072822;28;20169;-89
2021/09/04 08:17:05;;;;;;;14.48;4.82;;;;;;;16.62;93.24;100936.09;5072624;28;20032;-88
2021/09/04 08:19:30;;;;;;;12.00;4.10;;;;;;;16.77;86.66;100942.56;5073669;28;20028;-88
2021/09/04 08:21:56;;;;;;;11.95;4.90;;;;;;;16.72;85.06;100937.47;5072224;28;20031;-88
2021/09/04 08:24:21;;;;;;;8.48;4.22;;;;;;;16.22;89.21;100950.63;5073496;28;20097;-89
2021/09/04 08:26:46;;;;;;;8.98;4.25;;;;;;;16.60;86.98;100939.69;5071928;28;20062;-89
2021/09/04 08:29:11;;;;;;;11.57;4.07;;;;;;;16.23;86.29;100941.88;5071501;28;20051;-89
2021/09/04 08:31:36;;;;;;;10.60;4.28;;;;;;;16.63;84.26;100945.66;5072075;28;20066;-88
2021/09/04 08:34:02;;;;;;;11.38;4.22;;;;;;;16.48;85.52;100936.59;5073008;28;20024;-89
2021/09/04 08:36:27;;;;;;;10.13;4.22;;;;;;;16.19;86.57;100945.50;5071926;28;20024;-88
2021/09/04 08:38:52;;;;;;;11.77;3.88;;;;;;;15.91;87.21;100942.97;5072296;28;20032;-89
2021/09/04 08:41:18;;;;;;;13.30;4.35;;;;;;;18.54;74.27;100944.88;5071982;28;20448;-89
2021/09/04 08:43:45;;;;;;;8.68;3.85;;;;;;;19.71;68.76;100944.63;5072406;28;20020;-89
2021/09/04 08:46:13;;;;;;;10.85;4.28;;;;;;;19.28;67.45;100939.69;5072250;28;20469;-89
2021/09/04 08:48:39;;;;;;;7.68;3.83;;;;;;;20.03;64.52;100950.03;5071985;28;20035;-89
2021/09/04 08:51:05;;;;;;;9.77;4.05;;;;;;;19.56;67.70;100948.84;5071836;28;20024;-89
2021/09/04 08:53:30;;;;;;;11.02;4.13;;;;;;;19.78;63.49;100943.41;5071691;28;20115;-88
2021/09/04 08:55:55;;;;;;;9.88;4.18;;;;;;;18.72;67.84;100948.44;5071703;28;20044;-89
2021/09/04 08:58:20;;;;;;;7.70;3.97;;;;;;;19.07;67.31;100952.06;5073355;28;20031;-91
2021/09/04 09:00:49;;;;;;;11.15;3.90;;;;;;;18.25;70.12;100954.03;5072618;28;20143;-91
2021/09/04 09:03:24;;;;;;;8.73;4.13;;;;;;;18.37;75.03;100957.88;5072739;28;20043;-91
2021/09/04 09:05:52;;;;;;;8.43;3.70;;;;;;;18.21;72.35;100957.72;5072137;28;20028;-91
2021/09/04 09:08:25;;;;;;;9.90;3.78;;;;;;;18.45;71.27;100947.06;5072210;28;20027;-91
2021/09/04 09:10:55;;;;;;;7.57;3.70;;;;;;;18.16;72.82;100955.31;5071855;28;20476;-91
2021/09/04 09:13:21;;;;;;;9.80;3.42;;;;;;;18.22;73.52;100964.66;5072159;28;20092;-91
2021/09/04 09:15:48;;;;;;;10.43;3.67;;;;;;;17.66;74.00;100966.13;5071723;28;20027;-91
2021/09/04 09:18:15;;;;;;;8.70;3.95;;;;;;;17.53;79.02;100964.06;5071541;28;20032;-91
2021/09/04 09:21:06;;;;;;;8.68;3.70;;;;;;;18.05;77.52;100969.81;5071426;28;20016;-91
2021/09/04 09:23:32;;;;;;;7.07;3.65;;;;;;;18.25;74.24;100971.56;5071489;28;20028;-91
2021/09/04 09:26:09;;;;;;;8.98;3.85;;;;;;;18.74;72.59;100965.00;5072323;28;20028;-91
2021/09/04 09:28:36;;;;;;;9.85;3.63;;;;;;;18.92;71.53;100965.94;5071533;28;20016;-91
2021/09/04 09:31:06;;;;;;;9.43;3.88;;;;;;;18.48;76.26;100955.66;5071374;28;20028;-91
2021/09/04 09:33:32;;;;;;;8.57;3.92;;;;;;;19.17;69.35;100960.38;5071965;28;20041;-91
2021/09/04 09:35:59;;;;;;;10.05;4.10;;;;;;;19.01;71.35;100962.88;5072082;28;20480;-91
2021/09/04 09:38:27;;;;;;;13.52;4.45;;;;;;;17.64;76.77;100969.72;5073224;28;20439;-91
2021/09/04 09:41:06;;;;;;;9.13;3.97;;;;;;;17.57;79.05;100976.13;5072832;28;20136;-91
2021/09/04 09:43:35;;;;;;;10.15;4.13;;;;;;;17.31;80.82;100975.41;5075192;28;20096;-92
2021/09/04 09:46:07;;;;;;;7.95;3.65;;;;;;;17.57;83.74;100970.88;5074992;28;20485;-92
2021/09/04 09:48:36;;;;;;;13.27;4.30;;;;;;;17.36;86.39;100975.22;5075236;28;20028;-91
2021/09/04 09:51:04;;;;;;;12.40;3.63;;;;;;;17.18;85.01;100964.56;5075559;28;20040;-91
2021/09/04 09:53:30;;;;;;;12.35;3.88;;;;;;;17.05;83.84;100968.56;5074753;28;20107;-92
2021/09/04 09:55:58;;;;;;;12.45;4.40;;;;;;;17.14;85.41;100973.44;5074888;28;20020;-92
2021/09/04 09:58:25;;;;;;;10.52;4.70;;;;;;;16.98;88.61;100975.81;5074672;28;20075;-91
2021/09/04 10:00:53;;;;;;;8.18;4.00;;;;;;;16.66;89.35;100974.38;5075029;28;20044;-91
2021/09/04 10:03:21;;;;;;;9.27;4.00;;;;;;;16.75;89.32;100976.69;5074866;28;20039;-91
2021/09/04 10:05:47;;;;;;;11.57;4.40;;;;;;;16.72;90.26;100974.16;5074487;28;20021;-91
2021/09/04 10:08:16;;;;;;;11.63;4.38;;;;;;;17.09;88.82;100979.75;5076116;28;20032;-91
2021/09/04 10:10:43;;;;;;;9.15;4.30;;;;;;;17.30;91.69;100972.84;5075720;28;20031;-91
2021/09/04 10:13:10;;;;;;;11.43;4.88;;;;;;;17.39;94.07;100977.72;5074338;28;20480;-91
2021/09/04 10:15:38;;;;;;;11.70;4.88;;;;;;;17.34;92.43;100977.91;5074696;28;20025;-91
2021/09/04 10:18:11;;;;;;;11.40;4.80;;;;;;;17.07;92.06;100976.38;5075646;28;20480;-91
2021/09/04 10:20:37;;;;;;;11.63;4.32;;;;;;;17.08;92.23;100981.53;5074358;28;20031;-91
2021/09/04 10:23:36;;;;;;;11.18;4.65;;;;;;;17.12;92.19;100987.50;5074158;28;20395;-91
2021/09/04 10:26:31;;;;;;;9.85;4.28;;;;;;;16.94;90.57;100987.31;5074183;28;20035;-91
2021/09/04 10:29:14;;;;;;;12.52;4.35;;;;;;;17.32;91.03;100978.88;5074131;28;20039;-91
2021/09/04 10:31:59;;;;;;;11.75;4.70;;;;;;;17.33;91.28;100986.69;5106609;22;20041;-81
2021/09/04 10:34:44;;;;;;;9.82;4.43;;;;;;;17.24;91.39;100979.16;5063642;28;20028;-81
2021/09/04 10:37:12;;;;;;;9.82;4.38;;;;;;;18.08;91.10;100975.78;5063211;28;20021;-80
2021/09/04 10:39:53;;;;;;;11.07;4.97;;;;;;;20.58;75.76;100966.47;5062927;28;20029;-81
2021/09/04 10:42:21;;;;;;;11.40;5.13;;;;;;;19.69;75.39;100963.13;5063504;28;20025;-80
2021/09/04 10:44:48;;;;;;;13.00;4.80;;;;;;;19.28;81.71;100967.75;5062621;28;20016;-81
2021/09/04 10:47:15;;;;;;;9.60;4.57;;;;;;;18.57;84.30;100964.91;5063446;28;20028;-81
2021/09/04 10:49:45;;;;;;;10.30;4.60;;;;;;;18.48;88.64;100962.69;5064753;28;20023;-81
2021/09/04 10:52:11;;;;;;;10.02;5.05;;;;;;;18.10;87.69;100960.81;5064577;28;20025;-81
2021/09/04 10:54:56;;;;;;;12.77;4.50;;;;;;;18.37;87.92;100958.72;5069117;28;20051;-81
2021/09/04 10:57:22;;;;;;;9.70;4.55;;;;;;;17.90;88.56;100952.94;5060946;28;20392;-81
2021/09/04 10:59:57;;;;;;;17.98;5.53;;;;;;;18.64;83.44;100951.41;5061092;28;20028;-81
2021/09/04 11:02:23;;;;;;;13.88;4.45;;;;;;;18.48;82.10;100945.13;5060449;28;20506;-81
2021/09/04 11:04:55;;;;;;;12.18;5.07;;;;;;;18.74;82.31;100945.75;5060372;28;20103;-81
2021/09/04 11:07:43;;;;;;;15.50;5.05;;;;;;;19.96;76.40;100945.09;5061948;28;20020;-81
2021/09/04 11:10:22;;;;;;;10.95;4.30;;;;;;;19.18;79.47;100942.81;5060411;28;20029;-81
2021/09/04 11:13:03;;;;;;;10.68;4.70;;;;;;;18.98;80.67;100941.97;5061935;28;20029;-81
2021/09/04 11:15:29;;;;;;;11.88;4.30;;;;;;;18.38;83.49;100954.31;5061803;28;20028;-81